Main page
METAR-TAF:

METAR-TAF

Airports :

Sania Ramel Airport

Tétouan, Morocco

latitude: 35-35N, longitude: 005-20W, elevation: 10 m

Current weather observation

The report was made 51 minutes ago, at 19:00 UTC
Wind 5 kt from the East, varying between East/Northeast and Southeast
Temperature 24°C
Humidity 78%
Pressure 1013 hPa
Visibility: 8000 m
Few clouds at a height of 2000 ft
Broken clouds at a height of 20000 ft

METAR: GMTN 151900Z 09005KT 060V130 8000 FEW020 BKN200 24/20 Q1013 NOSIG

Time: 20:51 (19:51 UTC)


TAF: missing

Weather observations and forecasts of more than 4000 airports (METAR and TAF reports).

The available stations are represented by yellow and red dots on the map.

Hover mouse over dot to see the name of the station.

Then click to see weather observations and forecasts.

To change the map : click on the green buttons with a black cross to zoom in, on the green button with a dash to zoom out, or on the green arrows for adjacent maps.


METAR-TAF: